Time;durP1;ratioP1;P1;durP2;ratioP2;P2;SDS_P1;SDS_P2;PMS_P1;PMS_P2;Temp;Humidity;BMP_temperature;BMP_pressure;BME280_temperature;BME280_humidity;BME280_pressure;Samples;Min_cycle;Max_cycle;Signal;HPM_P1;HPM_P2
2024/01/24 00:02:02;;;;;;;0.00;0.00;;;;;;;-146.30;100.00;58188.94;10398675;28;20073;-89
2024/01/24 00:07:04;;;;;;;0.45;0.13;;;;;;;-146.30;100.00;58188.94;10399936;28;20132;-87
2024/01/24 00:12:06;;;;;;;0.32;0.32;;;;;;;-146.30;100.00;58188.94;10357505;28;20042;-86
2024/01/24 00:17:08;;;;;;;0.20;0.20;;;;;;;-146.30;100.00;58188.94;10370494;28;20141;-86
2024/01/24 00:22:11;;;;;;;0.03;0.03;;;;;;;-146.30;100.00;58188.94;10370127;28;20119;-86
2024/01/24 00:27:13;;;;;;;0.10;0.10;;;;;;;-146.30;100.00;58188.94;10368881;28;20050;-85
2024/01/24 00:32:15;;;;;;;0.28;0.28;;;;;;;-146.30;100.00;58188.94;10382994;28;20030;-87
2024/01/24 00:37:17;;;;;;;0.13;0.10;;;;;;;-146.30;100.00;58188.94;10364143;28;20065;-85
2024/01/24 00:42:18;;;;;;;0.40;0.38;;;;;;;-146.30;100.00;58188.94;10370059;28;20394;-87
2024/01/24 00:47:20;;;;;;;0.30;0.17;;;;;;;-146.30;100.00;58188.94;10374761;28;20053;-85
2024/01/24 00:52:22;;;;;;;0.10;0.10;;;;;;;-146.30;100.00;58188.94;10379859;28;20480;-84
2024/01/24 00:57:24;;;;;;;0.05;0.05;;;;;;;-146.30;100.00;58188.94;10376558;28;20052;-86
2024/01/24 01:02:25;;;;;;;0.10;0.10;;;;;;;-146.30;100.00;58188.94;10395450;28;20504;-86
2024/01/24 01:07:27;;;;;;;0.10;0.10;;;;;;;-146.30;100.00;58188.94;10367094;28;20050;-89
2024/01/24 01:12:29;;;;;;;0.20;0.10;;;;;;;-146.30;100.00;58188.94;10395968;28;20129;-86
2024/01/24 01:17:31;;;;;;;0.20;0.03;;;;;;;-146.30;100.00;58188.94;10363895;28;20050;-86
2024/01/24 01:22:33;;;;;;;0.28;0.10;;;;;;;-146.30;100.00;58188.94;10386118;28;20558;-86
2024/01/24 01:27:35;;;;;;;0.03;0.03;;;;;;;-146.30;100.00;58188.94;10363368;28;20073;-86
2024/01/24 01:32:38;;;;;;;0.05;0.05;;;;;;;-146.30;100.00;58188.94;10387922;28;20513;-88
2024/01/24 01:37:41;;;;;;;0.03;0.03;;;;;;;-146.30;100.00;58188.94;10387968;28;20599;-89
2024/01/24 01:42:46;;;;;;;0.08;0.08;;;;;;;-146.30;100.00;58188.94;10377271;28;20489;-88
2024/01/24 01:47:50;;;;;;;0.00;0.00;;;;;;;-146.30;100.00;58188.94;10373957;28;20489;-87
2024/01/24 01:52:52;;;;;;;0.00;0.00;;;;;;;-146.30;100.00;58188.94;10387096;28;20077;-89
2024/01/24 01:57:55;;;;;;;0.00;0.00;;;;;;;-146.30;100.00;58188.94;10365514;28;20164;-89
2024/01/24 02:02:56;;;;;;;0.13;0.10;;;;;;;-146.30;100.00;58188.94;10410501;28;20049;-86
2024/01/24 02:07:58;;;;;;;0.20;0.10;;;;;;;-146.30;100.00;58188.94;10363788;28;20057;-89
2024/01/24 02:13:01;;;;;;;0.15;0.10;;;;;;;-146.30;100.00;58188.94;10378186;28;20053;-89
2024/01/24 02:18:03;;;;;;;0.00;0.00;;;;;;;-146.30;100.00;58188.94;10353680;28;20056;-89
2024/01/24 02:23:05;;;;;;;0.00;0.00;;;;;;;-146.30;100.00;58188.94;10395918;28;20132;-88
2024/01/24 02:28:06;;;;;;;0.10;0.10;;;;;;;-146.30;100.00;58188.94;10403917;28;20040;-89
2024/01/24 02:33:08;;;;;;;0.00;0.00;;;;;;;-146.30;100.00;58188.94;10365977;28;20123;-88
2024/01/24 02:38:10;;;;;;;0.00;0.00;;;;;;;-146.30;100.00;58188.94;10361361;28;20505;-87
2024/01/24 02:43:12;;;;;;;0.08;0.08;;;;;;;-146.30;100.00;58188.94;10388315;28;20069;-87
2024/01/24 02:48:14;;;;;;;0.03;0.00;;;;;;;-146.30;100.00;58188.94;10378093;28;20132;-87
2024/01/24 02:53:16;;;;;;;0.08;0.05;;;;;;;-146.30;100.00;58188.94;10376945;28;20045;-86
2024/01/24 02:58:17;;;;;;;0.13;0.10;;;;;;;-146.30;100.00;58188.94;10386883;28;20169;-89
2024/01/24 03:03:19;;;;;;;0.20;0.03;;;;;;;-146.30;100.00;58188.94;10375576;28;20038;-87
2024/01/24 03:08:21;;;;;;;0.20;0.10;;;;;;;-146.30;100.00;58188.94;10410262;28;20041;-89
2024/01/24 03:13:22;;;;;;;0.00;0.00;;;;;;;-146.30;100.00;58188.94;10393921;28;20044;-87
2024/01/24 03:18:24;;;;;;;0.00;0.00;;;;;;;-146.30;100.00;58188.94;10395153;28;20046;-88
2024/01/24 03:23:28;;;;;;;0.00;0.00;;;;;;;-146.30;100.00;58188.94;10391725;28;20044;-87
2024/01/24 03:28:29;;;;;;;0.00;0.00;;;;;;;-146.30;100.00;58188.94;10375805;28;20049;-87
2024/01/24 03:33:31;;;;;;;0.00;0.00;;;;;;;-146.30;100.00;58188.94;10379765;28;20046;-90
2024/01/24 03:38:34;;;;;;;0.00;0.00;;;;;;;-146.30;100.00;58188.94;10379740;28;20133;-88
2024/01/24 03:43:39;;;;;;;0.00;0.00;;;;;;;-146.30;100.00;58188.94;10386454;28;20477;-87
2024/01/24 03:48:41;;;;;;;0.00;0.00;;;;;;;-146.30;100.00;58188.94;10367553;28;20468;-87
2024/01/24 03:53:43;;;;;;;0.00;0.00;;;;;;;-146.30;100.00;58188.94;10385871;28;20408;-86
2024/01/24 03:58:45;;;;;;;0.43;0.10;;;;;;;-146.30;100.00;58188.94;10376917;28;20058;-84
2024/01/24 04:03:48;;;;;;;5.50;0.55;;;;;;;-146.30;100.00;58188.94;10384598;28;20061;-84
2024/01/24 04:08:50;;;;;;;0.00;0.00;;;;;;;-146.30;100.00;58188.94;10363626;28;20054;-84
2024/01/24 04:13:53;;;;;;;0.00;0.00;;;;;;;-146.30;100.00;58188.94;10380700;28;20042;-84
2024/01/24 04:18:54;;;;;;;0.47;0.03;;;;;;;-146.30;100.00;58188.94;10372739;28;20049;-84
2024/01/24 04:23:56;;;;;;;0.00;0.00;;;;;;;-146.30;100.00;58188.94;10369316;28;20042;-85
2024/01/24 04:28:58;;;;;;;0.00;0.00;;;;;;;-146.30;100.00;58188.94;10370709;28;20560;-84
2024/01/24 04:34:00;;;;;;;0.00;0.00;;;;;;;-146.30;100.00;58188.94;10371056;28;20037;-83
2024/01/24 04:39:02;;;;;;;0.00;0.00;;;;;;;-146.30;100.00;58188.94;10360826;28;20056;-82
2024/01/24 04:44:04;;;;;;;0.00;0.00;;;;;;;-146.30;100.00;58188.94;10390881;28;20048;-82
2024/01/24 04:49:07;;;;;;;13.25;0.45;;;;;;;-146.30;100.00;58188.94;10389325;28;20184;-83
2024/01/24 04:54:23;;;;;;;1.45;0.55;;;;;;;-146.30;100.00;58188.94;10385834;28;20041;-83
2024/01/24 04:59:24;;;;;;;0.28;0.20;;;;;;;-146.30;100.00;58188.94;10388657;28;20096;-83
2024/01/24 05:04:26;;;;;;;1.70;0.68;;;;;;;-146.30;100.00;58188.94;10374940;28;20239;-82
2024/01/24 05:09:28;;;;;;;0.00;0.00;;;;;;;-146.30;100.00;58188.94;10368523;28;20475;-82
2024/01/24 05:14:30;;;;;;;0.00;0.00;;;;;;;-146.30;100.00;58188.94;10379134;28;20412;-82
2024/01/24 05:19:32;;;;;;;0.65;0.65;;;;;;;-146.30;100.00;58188.94;10368695;28;20045;-82
2024/01/24 05:24:34;;;;;;;0.75;0.30;;;;;;;-146.30;100.00;58188.94;10379160;28;20046;-82
2024/01/24 05:29:36;;;;;;;2.53;0.40;;;;;;;-146.30;100.00;58188.94;10362688;28;20050;-82
2024/01/24 05:34:38;;;;;;;4.13;0.15;;;;;;;-146.30;100.00;58188.94;10361248;28;20508;-81
2024/01/24 05:39:41;;;;;;;0.43;0.35;;;;;;;-146.30;100.00;58188.94;10367325;28;20125;-82
2024/01/24 05:44:44;;;;;;;1.80;0.95;;;;;;;-146.30;100.00;58188.94;10363982;28;20049;-81
2024/01/24 05:49:46;;;;;;;0.28;0.28;;;;;;;-146.30;100.00;58188.94;10370894;28;20053;-82
2024/01/24 05:54:48;;;;;;;6.20;0.93;;;;;;;-146.30;100.00;58188.94;10382357;28;20072;-82
2024/01/24 05:59:50;;;;;;;0.20;0.20;;;;;;;-146.30;100.00;58188.94;10368545;28;20133;-84
2024/01/24 06:04:52;;;;;;;4.00;0.85;;;;;;;-146.30;100.00;58188.94;10380723;28;20390;-83
2024/01/24 06:09:54;;;;;;;0.68;0.38;;;;;;;-146.30;100.00;58188.94;10383835;28;20486;-82
2024/01/24 06:14:56;;;;;;;1.13;0.25;;;;;;;-146.30;100.00;58188.94;10355347;28;20052;-82
2024/01/24 06:19:59;;;;;;;0.73;0.73;;;;;;;-146.30;100.00;58188.94;10364442;28;20050;-83
2024/01/24 06:25:02;;;;;;;0.45;0.45;;;;;;;-146.30;100.00;58188.94;10380050;28;20041;-83
2024/01/24 06:30:09;;;;;;;1.55;0.50;;;;;;;-146.30;100.00;58188.94;10372090;28;20069;-83
2024/01/24 06:35:23;;;;;;;0.47;0.47;;;;;;;-146.30;100.00;58188.94;10374645;28;20082;-83
2024/01/24 06:40:25;;;;;;;2.70;0.82;;;;;;;-146.30;100.00;58188.94;10360203;28;20065;-82
2024/01/24 06:45:27;;;;;;;0.13;0.13;;;;;;;-146.30;100.00;58188.94;10381832;28;20575;-83
2024/01/24 06:50:29;;;;;;;12.57;1.98;;;;;;;-146.30;100.00;58188.94;10368313;28;20116;-85
2024/01/24 06:55:31;;;;;;;1.75;0.88;;;;;;;-146.30;100.00;58188.94;10372252;28;20471;-82
2024/01/24 07:00:33;;;;;;;2.40;0.95;;;;;;;-146.30;100.00;58188.94;10362489;28;20141;-83
2024/01/24 07:05:35;;;;;;;2.45;0.63;;;;;;;-146.30;100.00;58188.94;10371609;28;20578;-83
2024/01/24 07:10:37;;;;;;;0.00;0.00;;;;;;;-146.30;100.00;58188.94;10381029;28;20451;-85
2024/01/24 07:15:39;;;;;;;0.00;0.00;;;;;;;-146.30;100.00;58188.94;10374222;28;20041;-83
2024/01/24 07:20:41;;;;;;;0.00;0.00;;;;;;;-146.30;100.00;58188.94;10361423;28;20056;-85
2024/01/24 07:25:43;;;;;;;5.15;1.45;;;;;;;-146.30;100.00;58188.94;10377258;28;20081;-85
2024/01/24 07:30:45;;;;;;;2.03;0.57;;;;;;;-146.30;100.00;58188.94;10362713;28;20481;-83
2024/01/24 07:35:47;;;;;;;4.47;2.10;;;;;;;-146.30;100.00;58188.94;10380842;28;20050;-86
2024/01/24 07:40:48;;;;;;;0.25;0.15;;;;;;;-146.30;100.00;58188.94;10370034;28;20395;-85
2024/01/24 07:45:50;;;;;;;2.00;1.45;;;;;;;-146.30;100.00;58188.94;10386363;28;20048;-83
2024/01/24 07:50:52;;;;;;;1.40;0.20;;;;;;;-146.30;100.00;58188.94;10383250;28;20049;-83
2024/01/24 07:55:56;;;;;;;5.22;1.30;;;;;;;-146.30;100.00;58188.94;10386714;28;20042;-82
2024/01/24 08:01:12;;;;;;;0.75;0.28;;;;;;;-146.30;100.00;58188.94;10368222;28;20048;-85
2024/01/24 08:06:14;;;;;;;0.20;0.20;;;;;;;-146.30;100.00;58188.94;10386581;28;20420;-83
2024/01/24 08:11:16;;;;;;;0.60;0.40;;;;;;;-146.30;100.00;58188.94;10380641;28;20129;-82
2024/01/24 08:16:18;;;;;;;0.75;0.57;;;;;;;-146.30;100.00;58188.94;10407218;28;20060;-86
2024/01/24 08:21:20;;;;;;;2.72;0.30;;;;;;;-146.30;100.00;58188.94;10371747;28;20123;-85
2024/01/24 08:26:22;;;;;;;0.50;0.10;;;;;;;-146.30;100.00;58188.94;10378477;28;20049;-83
2024/01/24 08:31:25;;;;;;;4.40;1.23;;;;;;;-146.30;100.00;58188.94;10391409;28;20042;-86
2024/01/24 08:36:26;;;;;;;0.75;0.45;;;;;;;-146.30;100.00;58188.94;10381100;28;20128;-85
2024/01/24 08:41:29;;;;;;;0.43;0.28;;;;;;;-146.30;100.00;58188.94;10384287;28;20092;-87
2024/01/24 08:46:31;;;;;;;0.10;0.10;;;;;;;-146.30;100.00;58188.94;10400468;28;20048;-83
2024/01/24 08:51:33;;;;;;;2.13;0.63;;;;;;;-146.30;100.00;58188.94;10365774;28;20076;-83
2024/01/24 08:56:35;;;;;;;1.27;0.73;;;;;;;-146.30;100.00;58188.94;10370729;28;20397;-83
2024/01/24 09:01:36;;;;;;;6.60;2.17;;;;;;;-146.30;100.00;58188.94;10362426;28;20038;-84
2024/01/24 09:06:38;;;;;;;0.85;0.10;;;;;;;-146.30;100.00;58188.94;10385953;28;20103;-84
2024/01/24 09:11:40;;;;;;;0.10;0.00;;;;;;;-146.30;100.00;58188.94;10361793;28;20038;-83
2024/01/24 09:16:56;;;;;;;0.00;0.00;;;;;;;-146.30;100.00;58188.94;10367787;28;20046;-82
2024/01/24 09:21:59;;;;;;;0.47;0.30;;;;;;;-146.30;100.00;58188.94;10377115;28;20052;-83
2024/01/24 09:27:04;;;;;;;0.52;0.52;;;;;;;-146.30;100.00;58188.94;10380672;28;20612;-84
2024/01/24 09:32:07;;;;;;;1.00;0.77;;;;;;;-146.30;100.00;58188.94;10384175;28;20045;-85
2024/01/24 09:37:09;;;;;;;2.40;0.60;;;;;;;-146.30;100.00;58188.94;10388034;28;20569;-85
2024/01/24 09:42:22;;;;;;;0.10;0.05;;;;;;;-146.30;100.00;58188.94;10353761;28;20493;-84
2024/01/24 09:47:24;;;;;;;8.73;1.20;;;;;;;-146.30;100.00;58188.94;10373048;28;20542;-84
2024/01/24 09:52:27;;;;;;;1.08;0.35;;;;;;;-146.30;100.00;58188.94;10357867;28;20046;-84
2024/01/24 09:57:29;;;;;;;0.35;0.25;;;;;;;-146.30;100.00;58188.94;10390356;28;20477;-83
2024/01/24 10:02:30;;;;;;;0.93;0.70;;;;;;;-146.30;100.00;58188.94;10389545;28;20034;-83
2024/01/24 10:07:32;;;;;;;1.38;0.47;;;;;;;-146.30;100.00;58188.94;10371630;28;20048;-84
2024/01/24 10:12:35;;;;;;;2.10;1.33;;;;;;;-146.30;100.00;58188.94;10379228;28;20245;-87
2024/01/24 10:17:41;;;;;;;2.47;0.63;;;;;;;-146.30;100.00;58188.94;10371506;28;20412;-83
2024/01/24 10:22:44;;;;;;;4.88;0.80;;;;;;;-146.30;100.00;58188.94;10384254;28;20046;-83
2024/01/24 10:27:46;;;;;;;1.23;0.75;;;;;;;-146.30;100.00;58188.94;10382467;28;20408;-84
2024/01/24 10:32:49;;;;;;;0.45;0.28;;;;;;;-146.30;100.00;58188.94;10366286;28;20129;-85
2024/01/24 10:37:52;;;;;;;1.00;1.00;;;;;;;-146.30;100.00;58188.94;10368620;28;20049;-83
2024/01/24 10:43:07;;;;;;;2.88;1.13;;;;;;;-146.30;100.00;58188.94;10368594;28;20053;-84
2024/01/24 10:48:11;;;;;;;2.35;0.77;;;;;;;-146.30;100.00;58188.94;10404077;28;20484;-83
2024/01/24 10:53:14;;;;;;;15.95;1.25;;;;;;;-146.30;100.00;58188.94;10380055;28;20041;-83
2024/01/24 10:58:15;;;;;;;26.98;1.10;;;;;;;-146.30;100.00;58188.94;10362422;28;20129;-83
2024/01/24 11:03:17;;;;;;;0.20;0.20;;;;;;;-146.30;100.00;58188.94;10364402;28;20441;-84
2024/01/24 11:08:33;;;;;;;0.25;0.25;;;;;;;-146.30;100.00;58188.94;10385061;28;20057;-84
2024/01/24 11:13:47;;;;;;;3.40;0.63;;;;;;;-146.30;100.00;58188.94;10379535;28;20049;-84
2024/01/24 11:18:49;;;;;;;0.50;0.32;;;;;;;-146.30;100.00;58188.94;10377141;28;20081;-84
2024/01/24 11:23:51;;;;;;;0.00;0.00;;;;;;;-146.30;100.00;58188.94;10371286;28;20042;-85
2024/01/24 11:29:04;;;;;;;3.70;1.35;;;;;;;-146.30;100.00;58188.94;10374363;28;20065;-82
2024/01/24 11:34:09;;;;;;;0.43;0.43;;;;;;;-146.30;100.00;58188.94;10379310;28;20508;-83
2024/01/24 11:39:30;;;;;;;1.55;1.13;;;;;;;-146.30;100.00;58188.94;10358790;28;20049;-84
2024/01/24 11:44:32;;;;;;;0.03;0.03;;;;;;;-146.30;100.00;58188.94;10388853;28;20412;-83
2024/01/24 11:49:34;;;;;;;2.92;1.27;;;;;;;-146.30;100.00;58188.94;10393256;28;20041;-83
2024/01/24 11:54:36;;;;;;;1.10;0.20;;;;;;;-146.30;100.00;58188.94;10377313;28;20048;-85
2024/01/24 11:59:38;;;;;;;0.10;0.10;;;;;;;-146.30;100.00;58188.94;10382756;28;20568;-83
2024/01/24 12:04:40;;;;;;;2.22;1.17;;;;;;;-146.30;100.00;58188.94;10386948;28;20123;-86
2024/01/24 12:09:42;;;;;;;9.65;2.50;;;;;;;-146.30;100.00;58188.94;10367246;28;20115;-82
2024/01/24 12:14:44;;;;;;;0.90;0.40;;;;;;;-146.30;100.00;58188.94;10394350;28;20045;-83
2024/01/24 12:19:47;;;;;;;0.45;0.22;;;;;;;-146.30;100.00;58188.94;10373076;28;20446;-85
2024/01/24 12:24:49;;;;;;;11.55;0.73;;;;;;;-146.30;100.00;58188.94;10365856;28;20041;-82
2024/01/24 12:29:52;;;;;;;0.77;0.35;;;;;;;-146.30;100.00;58188.94;10369822;28;20073;-83
2024/01/24 12:34:54;;;;;;;0.60;0.55;;;;;;;-146.30;100.00;58188.94;10391404;28;20053;-85
2024/01/24 12:39:57;;;;;;;0.30;0.10;;;;;;;-146.30;100.00;58188.94;10378482;28;20053;-84
2024/01/24 12:44:59;;;;;;;2.22;0.22;;;;;;;-146.30;100.00;58188.94;10389561;28;20473;-83
2024/01/24 12:50:01;;;;;;;2.72;0.05;;;;;;;-146.30;100.00;58188.94;10383754;28;20060;-83
2024/01/24 12:55:07;;;;;;;7.78;0.47;;;;;;;-146.30;100.00;58188.94;10385166;28;20137;-83
2024/01/24 13:00:10;;;;;;;4.72;1.10;;;;;;;-146.30;100.00;58188.94;10364674;28;20132;-83
2024/01/24 13:05:12;;;;;;;2.67;0.40;;;;;;;-146.30;100.00;58188.94;10384692;28;20136;-85
2024/01/24 13:10:14;;;;;;;1.17;0.43;;;;;;;-146.30;100.00;58188.94;10384657;28;20052;-83
2024/01/24 13:15:16;;;;;;;0.52;0.52;;;;;;;-146.30;100.00;58188.94;10385056;28;20050;-82
2024/01/24 13:20:18;;;;;;;0.22;0.10;;;;;;;-146.30;100.00;58188.94;10372041;28;20037;-83
2024/01/24 13:25:20;;;;;;;3.28;1.40;;;;;;;-146.30;100.00;58188.94;10377890;28;20421;-83
2024/01/24 13:30:22;;;;;;;0.08;0.05;;;;;;;-146.30;100.00;58188.94;10368949;28;20096;-83
2024/01/24 13:35:24;;;;;;;9.75;1.52;;;;;;;-146.30;100.00;58188.94;10369947;28;20543;-82
2024/01/24 13:40:26;;;;;;;0.98;0.40;;;;;;;-146.30;100.00;58188.94;10371424;28;20099;-85
2024/01/24 13:45:28;;;;;;;0.20;0.20;;;;;;;-146.30;100.00;58188.94;10382930;28;20042;-82
2024/01/24 13:50:30;;;;;;;0.08;0.08;;;;;;;-146.30;100.00;58188.94;10383404;28;20046;-82
2024/01/24 13:55:31;;;;;;;0.73;0.40;;;;;;;-146.30;100.00;58188.94;10386371;28;20073;-83
2024/01/24 14:00:33;;;;;;;0.28;0.22;;;;;;;-146.30;100.00;58188.94;10383809;28;20084;-83
2024/01/24 14:05:35;;;;;;;4.28;0.65;;;;;;;-146.30;100.00;58188.94;10373148;28;20042;-83
2024/01/24 14:10:40;;;;;;;2.05;1.10;;;;;;;-146.30;100.00;58188.94;10364270;28;20456;-84
2024/01/24 14:15:42;;;;;;;0.38;0.13;;;;;;;-146.30;100.00;58188.94;10362560;28;20523;-82
2024/01/24 14:20:45;;;;;;;3.45;0.88;;;;;;;-146.30;100.00;58188.94;10352324;28;20058;-82
2024/01/24 14:25:46;;;;;;;0.90;0.32;;;;;;;-146.30;100.00;58188.94;10379238;28;20050;-84
2024/01/24 14:30:48;;;;;;;0.13;0.10;;;;;;;-146.30;100.00;58188.94;10363761;28;20133;-84
2024/01/24 14:35:50;;;;;;;0.03;0.03;;;;;;;-146.30;100.00;58188.94;10384955;28;20060;-83
2024/01/24 14:40:52;;;;;;;0.20;0.20;;;;;;;-146.30;100.00;58188.94;10364206;28;20046;-83
2024/01/24 14:45:54;;;;;;;0.17;0.17;;;;;;;-146.30;100.00;58188.94;10379320;28;20277;-83
2024/01/24 14:50:55;;;;;;;7.03;0.35;;;;;;;-146.30;100.00;58188.94;10360741;28;20049;-84
2024/01/24 14:55:57;;;;;;;0.13;0.13;;;;;;;-146.30;100.00;58188.94;10365218;28;20057;-83
2024/01/24 15:00:59;;;;;;;0.10;0.10;;;;;;;-146.30;100.00;58188.94;10369742;28;20042;-84
2024/01/24 15:06:01;;;;;;;0.22;0.22;;;;;;;-146.30;100.00;58188.94;10387348;28;20046;-83
2024/01/24 15:11:03;;;;;;;0.88;0.85;;;;;;;-146.30;100.00;58188.94;10364499;28;20509;-83
2024/01/24 15:16:05;;;;;;;0.52;0.25;;;;;;;-146.30;100.00;58188.94;10365817;28;20145;-84
2024/01/24 15:21:10;;;;;;;0.00;0.00;;;;;;;-146.30;100.00;58188.94;10369900;28;20076;-83
2024/01/24 15:26:15;;;;;;;0.00;0.00;;;;;;;-146.30;100.00;58188.94;10386370;28;20045;-84
2024/01/24 15:31:17;;;;;;;0.32;0.28;;;;;;;-146.30;100.00;58188.94;10350609;28;20088;-84
2024/01/24 15:36:19;;;;;;;1.20;0.68;;;;;;;-146.30;100.00;58188.94;10380277;28;20041;-85
2024/01/24 15:41:22;;;;;;;1.88;0.68;;;;;;;-146.30;100.00;58188.94;10388209;28;20173;-82
2024/01/24 15:46:25;;;;;;;4.40;0.50;;;;;;;-146.30;100.00;58188.94;10374647;28;20564;-84
2024/01/24 15:51:27;;;;;;;0.00;0.00;;;;;;;-146.30;100.00;58188.94;10367439;28;20081;-85
2024/01/24 15:56:28;;;;;;;0.00;0.00;;;;;;;-146.30;100.00;58188.94;10368846;28;20081;-84
2024/01/24 16:01:33;;;;;;;0.00;0.00;;;;;;;-146.30;100.00;58188.94;10359328;28;20049;-83
2024/01/24 16:06:35;;;;;;;0.52;0.45;;;;;;;-146.30;100.00;58188.94;10381267;28;20140;-82
2024/01/24 16:11:37;;;;;;;0.35;0.20;;;;;;;-146.30;100.00;58188.94;10386546;28;20077;-81
2024/01/24 16:16:39;;;;;;;0.15;0.10;;;;;;;-146.30;100.00;58188.94;10389418;28;20041;-81
2024/01/24 16:21:47;;;;;;;0.00;0.00;;;;;;;-146.30;100.00;58188.94;10358461;28;20045;-85
2024/01/24 16:26:49;;;;;;;0.75;0.75;;;;;;;-146.30;100.00;58188.94;10376781;28;20385;-82
2024/01/24 16:31:51;;;;;;;1.95;0.77;;;;;;;-146.30;100.00;58188.94;10389613;28;20044;-82
2024/01/24 16:36:53;;;;;;;0.28;0.17;;;;;;;-146.30;100.00;58188.94;10370595;28;20041;-82
2024/01/24 16:41:56;;;;;;;2.75;0.57;;;;;;;-146.30;100.00;58188.94;10369354;28;20053;-83
2024/01/24 16:46:58;;;;;;;6.53;1.85;;;;;;;-146.30;100.00;58188.94;10370033;28;20068;-83
2024/01/24 16:52:03;;;;;;;0.20;0.20;;;;;;;-146.30;100.00;58188.94;10347208;28;20077;-83
2024/01/24 16:57:04;;;;;;;5.95;0.73;;;;;;;-146.30;100.00;58188.94;10396792;28;20400;-83
2024/01/24 17:02:06;;;;;;;3.30;0.82;;;;;;;-146.30;100.00;58188.94;10377964;28;20050;-82
2024/01/24 17:07:09;;;;;;;0.30;0.10;;;;;;;-146.30;100.00;58188.94;10395448;28;20060;-83
2024/01/24 17:12:16;;;;;;;0.10;0.08;;;;;;;-146.30;100.00;58188.94;10371170;28;20412;-84
2024/01/24 17:17:18;;;;;;;2.33;1.25;;;;;;;-146.30;100.00;58188.94;10385964;28;20584;-82
2024/01/24 17:22:20;;;;;;;2.95;1.80;;;;;;;-146.30;100.00;58188.94;10380582;28;20052;-84
2024/01/24 17:27:21;;;;;;;0.20;0.20;;;;;;;-146.30;100.00;58188.94;10376006;28;20505;-84
2024/01/24 17:32:23;;;;;;;1.35;1.20;;;;;;;-146.30;100.00;58188.94;10373297;28;20127;-83
2024/01/24 17:37:25;;;;;;;1.15;0.47;;;;;;;-146.30;100.00;58188.94;10365899;28;20053;-84
2024/01/24 17:42:27;;;;;;;7.60;2.22;;;;;;;-146.30;100.00;58188.94;10361148;28;20045;-83
2024/01/24 17:47:30;;;;;;;2.72;1.25;;;;;;;-146.30;100.00;58188.94;10378770;28;20042;-82
2024/01/24 17:52:37;;;;;;;14.07;1.38;;;;;;;-146.30;100.00;58188.94;10383472;28;20041;-82
2024/01/24 17:57:39;;;;;;;13.05;0.65;;;;;;;-146.30;100.00;58188.94;10392619;28;20409;-83
2024/01/24 18:02:41;;;;;;;1.65;0.52;;;;;;;-146.30;100.00;58188.94;10383238;28;20576;-84
2024/01/24 18:07:43;;;;;;;0.30;0.20;;;;;;;-146.30;100.00;58188.94;10368872;28;20050;-83
2024/01/24 18:12:45;;;;;;;0.28;0.17;;;;;;;-146.30;100.00;58188.94;10383908;28;20038;-84
2024/01/24 18:17:47;;;;;;;0.00;0.00;;;;;;;-146.30;100.00;58188.94;10367321;28;20398;-83
2024/01/24 18:22:49;;;;;;;9.43;0.30;;;;;;;-146.30;100.00;58188.94;10394895;28;20034;-82
2024/01/24 18:27:51;;;;;;;1.48;0.88;;;;;;;-146.30;100.00;58188.94;10375320;28;20046;-81
2024/01/24 18:32:53;;;;;;;1.55;0.70;;;;;;;-146.30;100.00;58188.94;10383755;28;20470;-84
2024/01/24 18:37:55;;;;;;;0.05;0.05;;;;;;;-146.30;100.00;58188.94;10365968;28;20052;-82
2024/01/24 18:42:57;;;;;;;0.80;0.52;;;;;;;-146.30;100.00;58188.94;10364170;28;20073;-86
2024/01/24 18:47:59;;;;;;;0.52;0.52;;;;;;;-146.30;100.00;58188.94;10381578;28;20528;-83
2024/01/24 18:53:01;;;;;;;0.13;0.13;;;;;;;-146.30;100.00;58188.94;10386343;28;20544;-83
2024/01/24 18:58:03;;;;;;;2.25;0.77;;;;;;;-146.30;100.00;58188.94;10368127;28;20067;-85
2024/01/24 19:03:06;;;;;;;0.70;0.65;;;;;;;-146.30;100.00;58188.94;10361132;28;20056;-83
2024/01/24 19:08:10;;;;;;;0.47;0.47;;;;;;;-146.30;100.00;58188.94;10401085;28;20170;-84
2024/01/24 19:13:13;;;;;;;0.38;0.32;;;;;;;-146.30;100.00;58188.94;10386575;28;20069;-83
2024/01/24 19:18:15;;;;;;;0.08;0.08;;;;;;;-146.30;100.00;58188.94;10372908;28;20469;-83
2024/01/24 19:23:23;;;;;;;1.15;0.10;;;;;;;-146.30;100.00;58188.94;10379129;28;20501;-83
2024/01/24 19:28:26;;;;;;;0.30;0.30;;;;;;;-146.30;100.00;58188.94;10363837;28;20382;-83
2024/01/24 19:33:27;;;;;;;0.80;0.38;;;;;;;-146.30;100.00;58188.94;10382108;28;20057;-84
2024/01/24 19:38:29;;;;;;;0.40;0.30;;;;;;;-146.30;100.00;58188.94;10382312;28;20543;-84
2024/01/24 19:43:31;;;;;;;0.10;0.10;;;;;;;-146.30;100.00;58188.94;10375042;28;20144;-84
2024/01/24 19:48:33;;;;;;;0.50;0.50;;;;;;;-146.30;100.00;58188.94;10378928;28;20156;-84
2024/01/24 19:53:34;;;;;;;7.70;1.50;;;;;;;-146.30;100.00;58188.94;10371210;28;20507;-84
2024/01/24 19:58:36;;;;;;;0.55;0.50;;;;;;;-146.30;100.00;58188.94;10389888;28;20044;-83
2024/01/24 20:03:38;;;;;;;0.20;0.20;;;;;;;-146.30;100.00;58188.94;10358201;28;20049;-84
2024/01/24 20:08:40;;;;;;;0.00;0.00;;;;;;;-146.30;100.00;58188.94;10371343;28;20057;-86
2024/01/24 20:13:42;;;;;;;0.20;0.13;;;;;;;-146.30;100.00;58188.94;10387954;28;20126;-84
2024/01/24 20:18:43;;;;;;;1.65;0.88;;;;;;;-146.30;100.00;58188.94;10393589;28;20049;-84
2024/01/24 20:23:45;;;;;;;1.95;0.52;;;;;;;-146.30;100.00;58188.94;10376498;28;20061;-82
2024/01/24 20:28:47;;;;;;;2.03;1.25;;;;;;;-146.30;100.00;58188.94;10370440;28;20057;-85
2024/01/24 20:33:48;;;;;;;1.35;0.45;;;;;;;-146.30;100.00;58188.94;10368789;28;20048;-83
2024/01/24 20:38:51;;;;;;;1.85;1.10;;;;;;;-146.30;100.00;58188.94;10364873;28;20120;-84
2024/01/24 20:43:53;;;;;;;0.75;0.73;;;;;;;-146.30;100.00;58188.94;10359684;28;20054;-84
2024/01/24 20:48:55;;;;;;;4.88;1.90;;;;;;;-146.30;100.00;58188.94;10386296;28;20056;-85
2024/01/24 20:53:58;;;;;;;0.15;0.05;;;;;;;-146.30;100.00;58188.94;10370525;28;20108;-84
2024/01/24 20:58:59;;;;;;;1.20;0.45;;;;;;;-146.30;100.00;58188.94;10368376;28;20042;-85
2024/01/24 21:04:02;;;;;;;5.82;0.47;;;;;;;-146.30;100.00;58188.94;10368163;28;20141;-84
2024/01/24 21:09:04;;;;;;;0.60;0.60;;;;;;;-146.30;100.00;58188.94;10372679;28;20053;-83
2024/01/24 21:14:05;;;;;;;0.20;0.17;;;;;;;-146.30;100.00;58188.94;10367312;28;20070;-83
2024/01/24 21:19:15;;;;;;;0.00;0.00;;;;;;;-146.30;100.00;58188.94;10372338;28;20104;-83
2024/01/24 21:24:17;;;;;;;7.38;1.30;;;;;;;-146.30;100.00;58188.94;10351055;28;20038;-83
2024/01/24 21:29:19;;;;;;;10.23;3.85;;;;;;;-146.30;100.00;58188.94;10367956;28;20046;-83
2024/01/24 21:34:21;;;;;;;4.07;1.80;;;;;;;-146.30;100.00;58188.94;10393050;28;20054;-84
2024/01/24 21:39:23;;;;;;;0.00;0.00;;;;;;;-146.30;100.00;58188.94;10378920;28;20053;-84
2024/01/24 21:44:25;;;;;;;6.50;0.85;;;;;;;-146.30;100.00;58188.94;10379402;28;20654;-82
2024/01/24 21:49:27;;;;;;;0.30;0.22;;;;;;;-146.30;100.00;58188.94;10379802;28;20077;-84
2024/01/24 21:54:29;;;;;;;2.55;0.85;;;;;;;-146.30;100.00;58188.94;10367594;28;20042;-83
2024/01/24 21:59:31;;;;;;;29.25;0.95;;;;;;;-146.30;100.00;58188.94;10378821;28;20046;-84
2024/01/24 22:04:33;;;;;;;4.63;1.13;;;;;;;-146.30;100.00;58188.94;10363917;28;20060;-84
2024/01/24 22:09:35;;;;;;;0.30;0.22;;;;;;;-146.30;100.00;58188.94;10373007;28;20404;-84
2024/01/24 22:14:37;;;;;;;0.03;0.03;;;;;;;-146.30;100.00;58188.94;10365636;28;20046;-84
2024/01/24 22:19:38;;;;;;;0.10;0.10;;;;;;;-146.30;100.00;58188.94;10367629;28;20485;-84
2024/01/24 22:24:40;;;;;;;0.20;0.20;;;;;;;-146.30;100.00;58188.94;10349568;28;20069;-85
2024/01/24 22:29:42;;;;;;;0.00;0.00;;;;;;;-146.30;100.00;58188.94;10392853;28;20132;-84
2024/01/24 22:34:44;;;;;;;0.17;0.17;;;;;;;-146.30;100.00;58188.94;10378434;28;20135;-84
2024/01/24 22:39:46;;;;;;;2.30;1.40;;;;;;;-146.30;100.00;58188.94;10367817;28;20049;-84